logo
Rechercher aéroport 
image banner adimage banner adimage banner ad
image banner ad

FASTER - Sterkfontein

Situé à , South Africa

ICAO - , IATA -

Données fournies par Airmate  

Information générale

Coordonnées: S26°2'45" E27°42'7"
Élévation : 2650 feet MSL.
 
Voir autres Aéroports à Limpopo

Données opérationnelles

Special qualification required
Heure actuelle UTC:
Heure actuelle locale:
Météo à : FALA - Lanseria International ( 25 km )
TAF: TAF FALA 220400Z 2206/2306 VRB03KT CAVOK TX23/2213Z TN10/2304Z
Voir NOTAMs / SUP AIP / TFR affectant cet aéroport [VIEW]
Fréquences de communication: [VIEW]

Pistes:

Identifiant RWYQFULongueur (ft)Largeur (ft)SurfaceLDA (ft)
16138°262549SAND
34318°262549SAND
1295°262549SAND
30275°262549SAND

Coordonnées de l'aéroport

Adresse: South Africa

Vue satellite de FASTER